Hamoir, Belgium
Current Conditions -  °F | °C
As of 3:20 PM on Monday 26 Jan 2015 (Local Time) from EBLG Reporting Station
Light Rain Light Rain  
Wind Chill: 34°   Ceiling: 300
Heat Index: 41°   Visibility: 1mi
Dew Point: 39°   Wind: 12mph
Humidity: 93%   Direction: 230°SW
Pressure: 30.06"   Gusts: NA
Location:  50.43°N, 5.53°E
Report Text: EBLG 261420Z 23010KT 1700 -RA BR SCT002 BKN003 05/04 Q1018 TEMPO 0800 FG
Loading
Personal Weather Stations






























Interactive Weather Map New forecast layout! Learn more

10-Day Weather Forecast

Advertisements
Track Severe Weather on mobile